• Join FlightAware (Why Join?)
  • Login
  • US Flag 
02:09AM EDT


 

Airport Tracker/Info


-or-


 

Live Flight TrackerFlight Track Log ✈ UAL752 ✈ 10-Sep-2013 ✈ KDCA - KIAH

Flight Track Log - Related Links

Times and Time Zones

All times are in EDT time to prevent confusion due to time zone crossing. See the UAL752 flight status page for this flight to view local times or setup timezone preferences in your user account.

Time Position Orientation Groundspeed Altitude Reporting Facility
EDT Latitude Longitude Course Direction KTS MPH feet Rate Location/Type
03:24PM 38.8000 -77.0333 229° Southwest 140 161 2,500  Level Potomac TRACON
03:25PM 38.7833 -77.0667 237° Southwest 193 222 3,800 2,040 Climbing Potomac TRACON
03:26PM 38.6548 -77.5765 236° Southwest  Level Estimated
03:26PM 38.7667 -77.1667 258° West 275 316 6,600  Level Potomac TRACON
03:27PM 38.5784 -77.6884 229° Southwest  Level FlightAware Approximate
03:27PM 38.7333 -77.2500 243° Southwest 298 343 9,600  Level Potomac TRACON
03:28PM 38.5019 -77.7999 229° Southwest  Level FlightAware Approximate
03:28PM 38.6833 -77.3500 237° Southwest 348 400 11,800  Level Potomac TRACON
03:29PM 38.6214 -77.4783 238° Southwest 369 425 14,900 2,640 Climbing Washington Center
03:30PM 38.5653 -77.5964 239° Southwest 369 425 17,900 2,520 Climbing Washington Center
03:31PM 38.5172 -77.7144 243° Southwest 374 430 20,000 2,100 Climbing Washington Center
03:32PM 38.4653 -77.8322 241° Southwest 379 436 22,200 2,040 Climbing Washington Center
03:33PM 38.4106 -77.9606 241° Southwest 391 450 24,200 1,920 Climbing Washington Center
03:34PM 38.3558 -78.0858 241° Southwest 397 457 26,000 1,680 Climbing Washington Center
03:35PM 38.2989 -78.2164 241° Southwest 412 474 27,600 1,620 Climbing Washington Center
03:36PM 38.2397 -78.3492 240° Southwest 423 487 29,300 1,320 Climbing Washington Center
03:37PM 38.1803 -78.4817 240° Southwest 429 494 30,300 1,080 Climbing Washington Center
03:38PM 38.1247 -78.6167 242° Southwest 429 494 31,500 1,260 Climbing Washington Center
03:39PM 38.0628 -78.7539 240° Southwest 440 506 32,900 1,440 Climbing Washington Center
03:40PM 37.9864 -78.8850 234° Southwest 453 521 34,400 1,440 Climbing Washington Center
03:41PM 37.9097 -79.0108 232° Southwest 458 527 35,800 1,380 Climbing Washington Center
03:42PM 37.8264 -79.1489 233° Southwest 458 527 37,200 1,080 Climbing Washington Center
03:43PM 37.7558 -79.2769 235° Southwest 458 527 38,000 360 Climbing Washington Center
03:44PM 37.6875 -79.3969 234° Southwest 465 535 38,000  Level Washington Center
03:45PM 37.6075 -79.5425 235° Southwest 465 535 38,000  Level Washington Center
03:46PM 37.5433 -79.6569 235° Southwest 458 527 38,000  Level Washington Center
03:47PM 37.4653 -79.7994 235° Southwest 458 527 38,000  Level Washington Center
03:48PM 37.3917 -79.9339 235° Southwest 464 534 38,000  Level Washington Center
03:50PM 37.2500 -80.2192 238° Southwest 466 536 38,000  Level Atlanta Center
03:51PM 37.1833 -80.3581 239° Southwest 466 536 38,000  Level Atlanta Center
03:52PM 37.1106 -80.5044 238° Southwest 466 536 38,000  Level Atlanta Center
03:53PM 37.0572 -80.6136 239° Southwest 466 536 38,000  Level Atlanta Center
03:54PM 36.9861 -80.7544 238° Southwest 461 531 38,000  Level Atlanta Center
03:55PM 36.9247 -80.8789 238° Southwest 463 533 38,000  Level Atlanta Center
03:56PM 36.8514 -81.0269 238° Southwest 458 527 38,000  Level Atlanta Center
03:57PM 36.7836 -81.1619 238° Southwest 458 527 38,000  Level Atlanta Center
03:58PM 36.7219 -81.2936 240° Southwest 458 527 38,000  Level Atlanta Center
03:59PM 36.6481 -81.4436 238° Southwest 458 527 38,000  Level Atlanta Center
04:00PM 36.5939 -81.5486 237° Southwest 458 527 38,000  Level Atlanta Center
04:01PM 36.5178 -81.6958 237° Southwest 463 533 38,000  Level Atlanta Center
04:03PM 36.3806 -81.9628 237° Southwest 463 533 38,000  Level Atlanta Center
04:04PM 36.3119 -82.0986 238° Southwest 469 540 38,000  Level Atlanta Center
04:05PM 36.2492 -82.2186 237° Southwest 469 540 38,000  Level Atlanta Center
04:06PM 36.1719 -82.3642 237° Southwest 469 540 38,000  Level Atlanta Center
04:07PM 36.1050 -82.4967 238° Southwest 458 527 38,000  Level Atlanta Center
04:08PM 36.0375 -82.6264 237° Southwest 463 533 38,000  Level Atlanta Center
04:09PM 35.9681 -82.7611 238° Southwest 463 533 38,000  Level Atlanta Center
04:10PM 35.8925 -82.9033 237° Southwest 463 533 38,000  Level Atlanta Center
04:11PM 35.8225 -83.0347 237° Southwest 458 527 38,000  Level Atlanta Center
04:12PM 35.7547 -83.1636 237° Southwest 458 527 38,000  Level Atlanta Center
04:13PM 35.6889 -83.2947 238° Southwest 458 527 38,000  Level Atlanta Center
04:14PM 35.6167 -83.4256 236° Southwest 458 527 38,000  Level Atlanta Center
04:16PM 35.5628 -83.6314 235° Southwest  Level FlightAware Approximate
04:18PM 35.3364 -83.9444 235° Southwest 458 527 38,000  Level Atlanta Center
04:19PM 35.2656 -84.0744 236° Southwest 463 533 38,000  Level Atlanta Center
04:20PM 35.1944 -84.2064 237° Southwest 463 533 38,000  Level Atlanta Center
04:21PM 35.1275 -84.3358 238° Southwest 458 527 38,000  Level Atlanta Center
04:22PM 35.0561 -84.4625 235° Southwest 458 527 38,000  Level Atlanta Center
04:23PM 35.0849 -84.4523 235° Southwest  Level FlightAware Approximate
04:23PM 34.9847 -84.5939 236° Southwest 463 533 38,000  Level Atlanta Center
04:24PM 34.9217 -84.7050 235° Southwest 458 527 38,000  Level Atlanta Center
04:25PM 34.8519 -84.8336 237° Southwest 463 533 38,000  Level Atlanta Center
04:26PM 34.7800 -84.9592 235° Southwest 463 533 38,000  Level Atlanta Center
04:27PM 34.7122 -85.0797 236° Southwest 456 525 38,000  Level Atlanta Center
04:28PM 34.6422 -85.2078 236° Southwest 456 525 38,000  Level Atlanta Center
04:29PM 34.5722 -85.3303 235° Southwest 456 525 38,000  Level Atlanta Center
04:30PM 34.5042 -85.4578 237° Southwest 456 525 38,000  Level Atlanta Center
04:31PM 34.4336 -85.5775 234° Southwest 456 525 38,000  Level Atlanta Center
04:32PM 34.3567 -85.7197 237° Southwest 461 531 38,000  Level Atlanta Center
04:33PM 34.2861 -85.8389 234° Southwest 453 521 38,000  Level Atlanta Center
04:34PM 34.2114 -85.9628 234° Southwest 459 528 38,000  Level Atlanta Center
04:35PM 34.1361 -86.0892 234° Southwest 459 528 38,000 60 Level Atlanta Center
04:36PM 34.0694 -86.2131 237° Southwest 459 528 38,200  Climbing Atlanta Center
04:37PM 33.9942 -86.3389 234° Southwest 459 528 38,000 -120 Descending Atlanta Center
04:38PM 33.9167 -86.4569 232° Southwest 459 528 38,000  Level Atlanta Center
04:39PM 33.8167 -86.5542 219° Southwest 459 528 38,000  Level Atlanta Center
04:40PM 33.7186 -86.6511 219° Southwest 459 528 38,000  Level Atlanta Center
04:41PM 33.6244 -86.7506 221° Southwest 459 528 38,000  Level Atlanta Center
04:42PM 33.5675 -86.8808 242° Southwest 445 512 38,000  Level Atlanta Center
04:43PM 33.5161 -87.0164 246° West 445 512 38,000  Level Atlanta Center
04:44PM 33.4647 -87.1539 246° West 450 518 38,000  Level Atlanta Center
04:45PM 33.4111 -87.2889 245° Southwest 455 524 38,000  Level Atlanta Center
04:47PM 33.2964 -87.5886 245° Southwest 448 516 38,000  Level Memphis Center
04:48PM 33.2431 -87.7219 244° Southwest 448 516 38,100  Climbing Memphis Center
04:49PM 33.1894 -87.8600 245° Southwest 448 516 38,000 -60 Descending Memphis Center
04:50PM 33.1378 -87.9931 245° Southwest 448 516 38,000  Level Memphis Center
04:51PM 33.0861 -88.1283 246° West 448 516 38,000  Level Memphis Center
04:52PM 33.0322 -88.2758 246° West 448 516 38,000  Level Memphis Center
04:53PM 32.9781 -88.4058 244° Southwest 443 510 38,000  Level Memphis Center
04:54PM 32.9278 -88.5406 246° West 449 517 38,000  Level Memphis Center
04:55PM 32.8714 -88.6728 243° Southwest 449 517 38,000  Level Memphis Center
04:56PM 32.8186 -88.8050 245° Southwest 444 511 38,000  Level Memphis Center
04:57PM 32.7661 -88.9367 245° Southwest 444 511 38,000  Level Memphis Center
04:58PM 32.7131 -89.0658 244° Southwest 444 511 38,000  Level Memphis Center
04:59PM 32.6603 -89.2000 245° Southwest 444 511 38,000  Level Memphis Center
05:00PM 32.6072 -89.3289 244° Southwest 444 511 38,000  Level Memphis Center
05:01PM 32.5539 -89.4600 244° Southwest 444 511 38,000  Level Memphis Center
05:02PM 32.5006 -89.5914 244° Southwest 444 511 38,000  Level Memphis Center
05:03PM 32.4447 -89.7197 243° Southwest 444 511 38,000  Level Memphis Center
05:04PM 32.3911 -89.8531 245° Southwest 444 511 38,100  Climbing Memphis Center
05:05PM 32.3353 -89.9861 244° Southwest 444 511 38,000 -60 Descending Memphis Center
05:06PM 32.2814 -90.1214 245° Southwest 444 511 38,000  Level Memphis Center
05:07PM 32.2272 -90.2492 243° Southwest 444 511 38,000  Level Memphis Center
05:08PM 32.1731 -90.3794 244° Southwest 444 511 38,000  Level Memphis Center
05:09PM 32.1167 -90.5094 243° Southwest 444 511 38,000  Level Memphis Center
05:10PM 32.0642 -90.6392 245° Southwest 444 511 38,000  Level Memphis Center
05:12PM 31.9983 -90.7961 244° Southwest 439 505 38,000  Level Houston Center
05:13PM 31.9328 -90.9503 243° Southwest 439 505 38,000  Level Houston Center
05:14PM 31.8786 -91.0772 243° Southwest 434 499 38,000  Level Houston Center
05:15PM 31.8236 -91.2053 243° Southwest 438 504 38,000  Level Houston Center
05:16PM 31.7675 -91.3317 242° Southwest 436 502 38,000  Level Houston Center
05:17PM 31.7144 -91.4594 244° Southwest 435 501 38,000  Level Houston Center
05:18PM 31.6583 -91.5856 242° Southwest 435 501 38,000  Level Houston Center
05:19PM 31.5931 -91.7361 243° Southwest 432 497 38,000  Level Houston Center
05:20PM 31.5386 -91.8625 243° Southwest 433 498 38,000  Level Houston Center
05:21PM 31.4831 -91.9872 242° Southwest 430 495 38,000 -180 Level Houston Center
05:22PM 31.4239 -92.1169 242° Southwest 428 493 37,700 -660 Descending Houston Center
05:23PM 31.3617 -92.2339 238° Southwest 423 487 36,700 -840 Descending Houston Center
05:24PM 31.2989 -92.3519 238° Southwest 427 491 36,000 -360 Descending Houston Center
05:25PM 31.2331 -92.4678 236° Southwest 428 493 36,000  Level Houston Center
05:26PM 31.1733 -92.5850 239° Southwest 422 486 36,000 -60 Level Houston Center
05:27PM 31.0981 -92.7247 238° Southwest 424 488 35,900  Descending Houston Center
05:28PM 31.0314 -92.8489 238° Southwest 444 511 36,000  Climbing Houston Center
05:29PM 30.9642 -92.9725 238° Southwest 452 520 36,000 -60 Level Houston Center
05:30PM 30.8969 -93.0967 238° Southwest 454 522 35,900 -660 Descending Houston Center
05:31PM 30.8308 -93.2189 238° Southwest 450 518 34,700 -1,980 Descending Houston Center
05:32PM 30.7497 -93.3672 238° Southwest 454 522 31,900 -2,760 Descending Houston Center
05:33PM 30.6817 -93.4919 238° Southwest 459 528 29,100 -2,640 Descending Houston Center
05:35PM 30.6133 -93.6181 238° Southwest 466 536 26,500 -2,520 Descending Houston Center
05:36PM 30.5456 -93.7406 237° Southwest 461 531 23,900 -2,520 Descending Houston Center
05:37PM 30.4814 -93.8558 237° Southwest 436 502 21,400 -2,760 Descending Houston Center
05:37PM 30.4333 -93.9406 237° Southwest 417 480 19,500 -3,000 Descending Houston Center
05:38PM 30.4056 -93.9900 237° Southwest 423 487 18,300 -2,460 Descending Houston Center
05:38PM 30.3494 -94.0903 237° Southwest 405 466 16,300 -2,280 Descending Houston Center
05:39PM 30.3444 -94.0983 234° Southwest 409 471 16,000 -2,220 Descending Houston Center
05:40PM 30.2861 -94.2053 238° Southwest 398 458 13,700 -1,860 Descending Houston Center
05:41PM 30.2361 -94.3208 243° Southwest 386 444 12,400 -1,380 Descending Houston Center
05:41PM 30.2372 -94.3164 74° East 390 449 12,300 -480 Descending Houston Center
05:42PM 30.1956 -94.4228 246° West 372 428 12,000 -420 Descending Houston Center
05:42PM 30.1953 -94.4261 264° West 377 434 11,900 -840 Descending Houston Center
05:43PM 30.1689 -94.5414 255° West 372 428 11,000 -1,080 Descending Houston Center
05:44PM 30.1472 -94.6589 258° West 367 422 10,000 -1,020 Descending Houston Center
05:44PM 30.1442 -94.6789 260° West 369 425 10,000  Level Houston Center
05:45PM 30.1269 -94.7750 258° West 365 420 10,000  Level Houston Center
05:45PM 30.1239 -94.7931 259° West 364 419 10,000 -240 Level Houston Center
05:46PM 30.1075 -94.8792 258° West 299 344 9,800 -540 Descending Houston Center
05:46PM 30.1067 -94.8933 266° West 334 384 9,500 -1,560 Descending Houston Center
05:47PM 30.1053 -94.9686 269° West 318 366 8,400 -1,500 Descending Houston Center
05:47PM 30.1058 -94.9906 272° West 308 354 8,000 -1,380 Descending Houston Center
05:48PM 30.1056 -95.0822 270° West 300 345 6,900 -1,200 Descending Houston Center
05:48PM 30.1061 -95.0875 277° West 306 352 6,800 -900 Descending Houston Center
05:49PM 30.1058 -95.1764 270° West 294 338 6,000 -780 Descending Houston Center
05:49PM 30.1058 -95.1983 270° West 291 335 6,000  Level Houston Center
05:50PM 30.1061 -95.2681 270° West 233 268 6,000  Level Houston Center
05:50PM 30.1064 -95.2778 272° West 254 292 6,000  Level Houston Center
05:51PM 30.1050 -95.3261 268° West 229 264 6,000 -300 Level Houston Center
05:51PM 30.1069 -95.3508 275° West 232 267 5,700 -1,020 Descending Houston Center
05:52PM 30.1064 -95.4106 269° West 229 264 4,900 -1,020 Descending Houston Center
05:52PM 30.1078 -95.4236 277° West 229 264 4,700 -1,080 Descending Houston Center
05:53PM 30.1067 -95.4831 269° West 230 265 3,800 -1,080 Descending Houston Center
05:53PM 30.1069 -95.4956 271° West 227 261 3,600 -840 Descending Houston Center
05:54PM 30.0661 -95.5217 209° Southwest 197 227 3,000 -600 Descending Houston Center
05:54PM 30.0600 -95.5233 193° South 205 236 3,000  Level Houston Center
05:55PM 30.0189 -95.5103 165° South 187 215 3,000  Level Houston Center
05:55PM 30.0136 -95.4942 111° Southeast 190 219 3,000 -840 Level Houston Center
05:56PM 30.0075 -95.4539 100° East 163 188 2,100 -1,260 Descending Houston Center
05:56PM 30.0078 -95.4408 89° East 175 201 1,700 -1,200 Descending Houston Center
05:57PM 30.0058 -95.4131 95° East 131 151 1,000 -900 Descending Houston Center
05:57PM 30.0081 -95.3975 81° East 155 178 800 -720 Descending Houston Center
05:58PM 30.0064 -95.3719 94° East 112 129 300 -540 Descending Houston Center
05:58PM 30.0072 -95.3606 85° East 132 152 300  Level Houston Center